sensor_id;sensor_type;location;lat;lon;timestamp;pressure;altitude;pressure_sealevel;temperature;humidity
59825;BME280;45703;50.898;6.054;2023-05-02T00:01:16;100523.34;;;10.58;93.72
59825;BME280;45703;50.898;6.054;2023-05-02T00:03:41;100521.72;;;10.50;92.31
59825;BME280;45703;50.898;6.054;2023-05-02T00:06:07;100529.09;;;10.55;92.02
59825;BME280;45703;50.898;6.054;2023-05-02T00:08:33;100523.59;;;10.50;91.77
59825;BME280;45703;50.898;6.054;2023-05-02T00:10:59;100538.38;;;10.46;94.44
59825;BME280;45703;50.898;6.054;2023-05-02T00:13:24;100531.81;;;10.42;93.46
59825;BME280;45703;50.898;6.054;2023-05-02T00:15:50;100535.31;;;10.42;93.95
59825;BME280;45703;50.898;6.054;2023-05-02T00:18:15;100539.81;;;10.42;93.36
59825;BME280;45703;50.898;6.054;2023-05-02T00:20:40;100533.69;;;10.35;92.52
59825;BME280;45703;50.898;6.054;2023-05-02T00:23:06;100540.47;;;10.37;93.25
59825;BME280;45703;50.898;6.054;2023-05-02T00:25:31;100532.91;;;10.34;92.26
59825;BME280;45703;50.898;6.054;2023-05-02T00:27:57;100543.75;;;10.39;97.62
59825;BME280;45703;50.898;6.054;2023-05-02T00:30:22;100539.47;;;10.32;94.94
59825;BME280;45703;50.898;6.054;2023-05-02T00:32:47;100545.41;;;10.34;96.31
59825;BME280;45703;50.898;6.054;2023-05-02T00:35:13;100543.16;;;10.31;94.68
59825;BME280;45703;50.898;6.054;2023-05-02T00:37:38;100529.66;;;10.26;95.12
59825;BME280;45703;50.898;6.054;2023-05-02T00:40:05;100546.00;;;10.36;98.27
59825;BME280;45703;50.898;6.054;2023-05-02T00:42:32;100551.16;;;10.31;100.00
59825;BME280;45703;50.898;6.054;2023-05-02T00:45:00;100560.63;;;10.27;99.55
59825;BME280;45703;50.898;6.054;2023-05-02T00:47:26;100553.66;;;10.26;99.88
59825;BME280;45703;50.898;6.054;2023-05-02T00:49:51;100557.78;;;10.28;100.00
59825;BME280;45703;50.898;6.054;2023-05-02T00:52:17;100559.59;;;10.28;99.12
59825;BME280;45703;50.898;6.054;2023-05-02T00:54:43;100560.81;;;10.32;97.27
59825;BME280;45703;50.898;6.054;2023-05-02T00:57:09;100559.97;;;10.38;98.65
59825;BME280;45703;50.898;6.054;2023-05-02T00:59:35;100568.56;;;10.40;96.74
59825;BME280;45703;50.898;6.054;2023-05-02T01:12:53;100586.66;;;10.38;100.00
59825;BME280;45703;50.898;6.054;2023-05-02T01:15:29;100580.50;;;10.37;100.00
59825;BME280;45703;50.898;6.054;2023-05-02T01:17:59;100586.47;;;10.33;100.00
59825;BME280;45703;50.898;6.054;2023-05-02T01:34:07;100596.47;;;10.44;99.88
59825;BME280;45703;50.898;6.054;2023-05-02T01:37:02;100603.88;;;10.42;100.00
59825;BME280;45703;50.898;6.054;2023-05-02T01:40:07;100605.09;;;10.46;100.00
59825;BME280;45703;50.898;6.054;2023-05-02T01:42:40;100607.16;;;10.44;100.00
59825;BME280;45703;50.898;6.054;2023-05-02T01:45:32;100609.22;;;10.42;100.00
59825;BME280;45703;50.898;6.054;2023-05-02T01:51:54;100607.59;;;10.41;100.00
59825;BME280;45703;50.898;6.054;2023-05-02T01:54:22;100602.66;;;10.38;100.00
59825;BME280;45703;50.898;6.054;2023-05-02T01:56:49;100582.63;;;10.22;100.00
59825;BME280;45703;50.898;6.054;2023-05-02T01:59:17;100594.06;;;10.36;100.00
59825;BME280;45703;50.898;6.054;2023-05-02T02:01:44;100604.53;;;10.37;100.00
59825;BME280;45703;50.898;6.054;2023-05-02T02:04:12;100616.19;;;10.43;100.00
59825;BME280;45703;50.898;6.054;2023-05-02T02:06:40;100608.78;;;10.45;99.18
59825;BME280;45703;50.898;6.054;2023-05-02T02:09:07;100611.69;;;10.50;98.80
59825;BME280;45703;50.898;6.054;2023-05-02T02:14:33;100608.34;;;10.54;100.00
59825;BME280;45703;50.898;6.054;2023-05-02T02:17:00;100609.19;;;10.55;99.35
59825;BME280;45703;50.898;6.054;2023-05-02T02:19:27;100609.63;;;10.52;100.00
59825;BME280;45703;50.898;6.054;2023-05-02T02:21:54;100618.66;;;10.51;100.00
59825;BME280;45703;50.898;6.054;2023-05-02T02:24:22;100620.72;;;10.49;100.00
59825;BME280;45703;50.898;6.054;2023-05-02T02:30:50;100621.28;;;10.57;98.34
59825;BME280;45703;50.898;6.054;2023-05-02T02:34:19;100627.47;;;10.58;99.35
59825;BME280;45703;50.898;6.054;2023-05-02T02:37:15;100629.28;;;10.57;100.00
59825;BME280;45703;50.898;6.054;2023-05-02T02:40:04;100621.88;;;10.59;99.55
59825;BME280;45703;50.898;6.054;2023-05-02T03:02:45;100637.09;;;10.59;99.18
59825;BME280;45703;50.898;6.054;2023-05-02T03:06:09;100638.31;;;10.63;97.92
59825;BME280;45703;50.898;6.054;2023-05-02T03:08:55;100622.53;;;10.55;98.88
59825;BME280;45703;50.898;6.054;2023-05-02T03:11:20;100640.56;;;10.66;98.21
59825;BME280;45703;50.898;6.054;2023-05-02T03:13:46;100638.31;;;10.63;99.63
59825;BME280;45703;50.898;6.054;2023-05-02T03:16:31;100644.69;;;10.62;100.00
59825;BME280;45703;50.898;6.054;2023-05-02T03:18:58;100651.06;;;10.61;99.24
59825;BME280;45703;50.898;6.054;2023-05-02T03:21:23;100660.91;;;10.60;100.00
59825;BME280;45703;50.898;6.054;2023-05-02T03:23:49;100655.56;;;10.60;99.29
59825;BME280;45703;50.898;6.054;2023-05-02T03:26:15;100654.16;;;10.58;99.89
59825;BME280;45703;50.898;6.054;2023-05-02T03:28:41;100653.13;;;10.59;99.92
59825;BME280;45703;50.898;6.054;2023-05-02T03:31:06;100657.00;;;10.63;97.64
59825;BME280;45703;50.898;6.054;2023-05-02T03:33:32;100657.00;;;10.63;100.00
59825;BME280;45703;50.898;6.054;2023-05-02T03:35:57;100660.09;;;10.60;100.00
59825;BME280;45703;50.898;6.054;2023-05-02T03:38:22;100655.59;;;10.54;100.00
59825;BME280;45703;50.898;6.054;2023-05-02T03:40:48;100660.53;;;10.57;99.61
59825;BME280;45703;50.898;6.054;2023-05-02T03:43:13;100662.75;;;10.60;100.00
59825;BME280;45703;50.898;6.054;2023-05-02T03:45:39;100661.31;;;10.57;100.00
59825;BME280;45703;50.898;6.054;2023-05-02T03:48:05;100656.84;;;10.51;100.00
59825;BME280;45703;50.898;6.054;2023-05-02T03:50:30;100669.56;;;10.56;100.00
59825;BME280;45703;50.898;6.054;2023-05-02T03:52:56;100676.53;;;10.57;100.00
59825;BME280;45703;50.898;6.054;2023-05-02T03:55:22;100674.47;;;10.59;100.00
59825;BME280;45703;50.898;6.054;2023-05-02T03:57:47;100677.75;;;10.61;100.00
59825;BME280;45703;50.898;6.054;2023-05-02T04:00:13;100684.31;;;10.65;100.00
59825;BME280;45703;50.898;6.054;2023-05-02T04:02:38;100681.03;;;10.63;100.00
59825;BME280;45703;50.898;6.054;2023-05-02T04:05:04;100684.72;;;10.62;100.00
59825;BME280;45703;50.898;6.054;2023-05-02T04:07:29;100691.72;;;10.63;100.00
59825;BME280;45703;50.898;6.054;2023-05-02T04:09:55;100688.84;;;10.58;100.00
59825;BME280;45703;50.898;6.054;2023-05-02T04:12:20;100684.31;;;10.58;100.00
59825;BME280;45703;50.898;6.054;2023-05-02T04:14:46;100709.38;;;10.64;100.00
59825;BME280;45703;50.898;6.054;2023-05-02T04:17:12;100702.34;;;10.69;100.00
59825;BME280;45703;50.898;6.054;2023-05-02T04:19:39;100705.63;;;10.71;100.00
59825;BME280;45703;50.898;6.054;2023-05-02T04:22:05;100707.69;;;10.69;100.00
59825;BME280;45703;50.898;6.054;2023-05-02T04:24:30;100714.69;;;10.70;100.00
59825;BME280;45703;50.898;6.054;2023-05-02T04:26:55;100717.56;;;10.69;100.00
59825;BME280;45703;50.898;6.054;2023-05-02T04:29:21;100725.34;;;10.70;100.00
59825;BME280;45703;50.898;6.054;2023-05-02T04:31:46;100726.00;;;10.66;100.00
59825;BME280;45703;50.898;6.054;2023-05-02T04:34:13;100730.50;;;10.65;100.00
59825;BME280;45703;50.898;6.054;2023-05-02T04:36:38;100746.09;;;10.68;100.00
59825;BME280;45703;50.898;6.054;2023-05-02T04:39:04;100739.34;;;10.72;100.00
59825;BME280;45703;50.898;6.054;2023-05-02T04:41:32;100732.38;;;10.65;99.93
59825;BME280;45703;50.898;6.054;2023-05-02T04:43:57;100744.69;;;10.66;99.98
59825;BME280;45703;50.898;6.054;2023-05-02T04:46:23;100743.28;;;10.57;99.33
59825;BME280;45703;50.898;6.054;2023-05-02T04:48:48;100751.72;;;10.54;100.00
59825;BME280;45703;50.898;6.054;2023-05-02T04:51:13;100751.09;;;10.52;98.87
59825;BME280;45703;50.898;6.054;2023-05-02T04:53:39;100747.22;;;10.48;98.95
59825;BME280;45703;50.898;6.054;2023-05-02T04:56:05;100751.91;;;10.46;99.80
59825;BME280;45703;50.898;6.054;2023-05-02T04:58:31;100754.78;;;10.44;100.00
59825;BME280;45703;50.898;6.054;2023-05-02T05:00:56;100753.75;;;10.39;99.71
59825;BME280;45703;50.898;6.054;2023-05-02T05:03:22;100770.63;;;10.39;100.00
59825;BME280;45703;50.898;6.054;2023-05-02T05:05:47;100767.72;;;10.41;100.00
59825;BME280;45703;50.898;6.054;2023-05-02T05:08:12;100774.50;;;10.43;99.98
59825;BME280;45703;50.898;6.054;2023-05-02T05:10:38;100773.91;;;10.35;100.00
59825;BME280;45703;50.898;6.054;2023-05-02T05:13:05;100766.09;;;10.27;100.00
59825;BME280;45703;50.898;6.054;2023-05-02T05:15:30;100777.38;;;10.29;100.00
59825;BME280;45703;50.898;6.054;2023-05-02T05:17:55;100791.16;;;10.32;100.00
59825;BME280;45703;50.898;6.054;2023-05-02T05:20:21;100794.25;;;10.29;100.00
59825;BME280;45703;50.898;6.054;2023-05-02T05:22:46;100792.59;;;10.28;100.00
59825;BME280;45703;50.898;6.054;2023-05-02T05:25:12;100796.72;;;10.24;100.00
59825;BME280;45703;50.898;6.054;2023-05-02T05:27:37;100806.94;;;10.21;100.00
59825;BME280;45703;50.898;6.054;2023-05-02T05:30:04;100798.53;;;10.17;100.00
59825;BME280;45703;50.898;6.054;2023-05-02T05:32:32;100806.53;;;10.24;100.00
59825;BME280;45703;50.898;6.054;2023-05-02T05:34:57;100820.09;;;10.29;100.00
59825;BME280;45703;50.898;6.054;2023-05-02T05:37:23;100814.13;;;10.27;100.00
59825;BME280;45703;50.898;6.054;2023-05-02T05:39:48;100817.41;;;10.29;99.93
59825;BME280;45703;50.898;6.054;2023-05-02T05:42:13;100819.47;;;10.27;100.00
59825;BME280;45703;50.898;6.054;2023-05-02T05:44:39;100822.13;;;10.27;100.00
59825;BME280;45703;50.898;6.054;2023-05-02T05:47:04;100833.03;;;10.25;100.00
59825;BME280;45703;50.898;6.054;2023-05-02T05:49:30;100826.88;;;10.25;100.00
59825;BME280;45703;50.898;6.054;2023-05-02T05:51:56;100835.91;;;10.24;100.00
59825;BME280;45703;50.898;6.054;2023-05-02T05:54:21;100831.41;;;10.24;100.00
59825;BME280;45703;50.898;6.054;2023-05-02T05:56:47;100841.66;;;10.27;100.00
59825;BME280;45703;50.898;6.054;2023-05-02T05:59:13;100837.75;;;10.30;100.00
59825;BME280;45703;50.898;6.054;2023-05-02T06:01:38;100833.84;;;10.26;100.00
59825;BME280;45703;50.898;6.054;2023-05-02T06:04:04;100836.94;;;10.29;100.00
59825;BME280;45703;50.898;6.054;2023-05-02T06:06:30;100843.06;;;10.30;100.00
59825;BME280;45703;50.898;6.054;2023-05-02T06:08:56;100842.88;;;10.31;100.00
59825;BME280;45703;50.898;6.054;2023-05-02T06:11:22;100861.34;;;10.33;100.00
59825;BME280;45703;50.898;6.054;2023-05-02T06:13:50;100849.03;;;10.32;100.00
59825;BME280;45703;50.898;6.054;2023-05-02T06:16:15;100859.72;;;10.32;100.00
59825;BME280;45703;50.898;6.054;2023-05-02T06:18:42;100845.75;;;10.23;100.00
59825;BME280;45703;50.898;6.054;2023-05-02T06:21:08;100855.81;;;10.28;100.00
59825;BME280;45703;50.898;6.054;2023-05-02T06:23:33;100850.25;;;10.23;100.00
59825;BME280;45703;50.898;6.054;2023-05-02T06:25:59;100860.94;;;10.23;100.00
59825;BME280;45703;50.898;6.054;2023-05-02T06:28:25;100857.03;;;10.19;100.00
59825;BME280;45703;50.898;6.054;2023-05-02T06:30:57;100875.09;;;10.30;100.00
59825;BME280;45703;50.898;6.054;2023-05-02T06:33:23;100873.69;;;10.27;100.00
59825;BME280;45703;50.898;6.054;2023-05-02T06:35:52;100876.75;;;10.31;100.00
59825;BME280;45703;50.898;6.054;2023-05-02T06:38:18;100886.63;;;10.30;100.00
59825;BME280;45703;50.898;6.054;2023-05-02T06:40:44;100891.13;;;10.30;100.00
59825;BME280;45703;50.898;6.054;2023-05-02T06:43:10;100883.09;;;10.30;100.00
59825;BME280;45703;50.898;6.054;2023-05-02T06:45:35;100890.91;;;10.38;100.00
59825;BME280;45703;50.898;6.054;2023-05-02T06:48:01;100898.31;;;10.36;100.00
59825;BME280;45703;50.898;6.054;2023-05-02T06:50:28;100906.53;;;10.41;100.00
59825;BME280;45703;50.898;6.054;2023-05-02T06:52:53;100906.94;;;10.44;100.00
59825;BME280;45703;50.898;6.054;2023-05-02T06:55:19;100898.72;;;10.52;100.00
59825;BME280;45703;50.898;6.054;2023-05-02T06:57:44;100912.28;;;10.57;100.00
59825;BME280;45703;50.898;6.054;2023-05-02T07:00:11;100920.72;;;10.61;100.00
59825;BME280;45703;50.898;6.054;2023-05-02T07:02:36;100914.34;;;10.68;100.00
59825;BME280;45703;50.898;6.054;2023-05-02T07:05:02;100919.69;;;10.75;100.00
59825;BME280;45703;50.898;6.054;2023-05-02T07:07:27;100925.03;;;10.75;100.00
59825;BME280;45703;50.898;6.054;2023-05-02T07:09:53;100926.91;;;10.74;100.00
59825;BME280;45703;50.898;6.054;2023-05-02T07:12:18;100920.91;;;10.79;99.86
59825;BME280;45703;50.898;6.054;2023-05-02T07:14:43;100935.91;;;10.80;100.00
59825;BME280;45703;50.898;6.054;2023-05-02T07:17:31;100937.97;;;10.78;100.00
59825;BME280;45703;50.898;6.054;2023-05-02T07:19:58;100938.63;;;10.73;100.00
59825;BME280;45703;50.898;6.054;2023-05-02T07:22:24;100947.63;;;10.79;100.00
59825;BME280;45703;50.898;6.054;2023-05-02T07:25:00;100950.91;;;10.81;98.60
59825;BME280;45703;50.898;6.054;2023-05-02T07:27:26;100956.88;;;10.83;98.34
59825;BME280;45703;50.898;6.054;2023-05-02T07:29:51;100957.31;;;10.86;97.38
59825;BME280;45703;50.898;6.054;2023-05-02T07:32:18;100963.25;;;10.88;97.54
59825;BME280;45703;50.898;6.054;2023-05-02T07:34:45;100946.81;;;10.85;96.44
59825;BME280;45703;50.898;6.054;2023-05-02T07:37:11;100969.00;;;10.92;95.62
59825;BME280;45703;50.898;6.054;2023-05-02T07:39:36;100973.13;;;11.01;94.88
59825;BME280;45703;50.898;6.054;2023-05-02T07:42:02;100975.19;;;11.12;94.95
59825;BME280;45703;50.898;6.054;2023-05-02T07:44:27;100971.25;;;11.14;94.56
59825;BME280;45703;50.898;6.054;2023-05-02T07:46:53;100977.63;;;11.26;94.52
59825;BME280;45703;50.898;6.054;2023-05-02T07:49:19;100980.28;;;11.33;92.98
59825;BME280;45703;50.898;6.054;2023-05-02T07:51:45;100984.38;;;11.42;92.92
59825;BME280;45703;50.898;6.054;2023-05-02T07:54:15;100974.91;;;11.45;92.40
59825;BME280;45703;50.898;6.054;2023-05-02T07:56:41;100988.28;;;11.52;89.36
59825;BME280;45703;50.898;6.054;2023-05-02T07:59:06;100992.63;;;11.59;90.47
59825;BME280;45703;50.898;6.054;2023-05-02T08:01:32;100993.03;;;11.56;89.03
59825;BME280;45703;50.898;6.054;2023-05-02T08:03:57;100992.81;;;11.58;88.85
59825;BME280;45703;50.898;6.054;2023-05-02T08:06:23;100996.75;;;11.55;88.09
59825;BME280;45703;50.898;6.054;2023-05-02T08:08:48;100996.50;;;11.57;87.99
59825;BME280;45703;50.898;6.054;2023-05-02T08:11:13;101001.44;;;11.60;86.82
59825;BME280;45703;50.898;6.054;2023-05-02T08:13:39;101002.25;;;11.67;88.02
59825;BME280;45703;50.898;6.054;2023-05-02T08:16:05;101004.50;;;11.70;86.83
59825;BME280;45703;50.898;6.054;2023-05-02T08:18:30;101006.38;;;11.76;86.63
59825;BME280;45703;50.898;6.054;2023-05-02T08:20:56;101000.59;;;11.66;84.53
59825;BME280;45703;50.898;6.054;2023-05-02T08:23:22;101003.88;;;11.74;84.93
59825;BME280;45703;50.898;6.054;2023-05-02T08:25:48;101013.34;;;11.77;85.16
59825;BME280;45703;50.898;6.054;2023-05-02T08:28:13;101000.59;;;11.79;86.56
59825;BME280;45703;50.898;6.054;2023-05-02T08:30:39;101005.91;;;11.85;86.71
59825;BME280;45703;50.898;6.054;2023-05-02T08:33:04;101011.25;;;11.92;86.22
59825;BME280;45703;50.898;6.054;2023-05-02T08:35:30;101014.91;;;11.97;85.96
59825;BME280;45703;50.898;6.054;2023-05-02T08:37:55;101020.91;;;11.99;85.02
59825;BME280;45703;50.898;6.054;2023-05-02T08:40:21;101001.53;;;11.97;84.35
59825;BME280;45703;50.898;6.054;2023-05-02T08:42:47;101005.84;;;11.98;84.22
59825;BME280;45703;50.898;6.054;2023-05-02T08:45:13;101022.75;;;11.92;82.44
59825;BME280;45703;50.898;6.054;2023-05-02T08:47:40;101021.31;;;11.96;83.85
59825;BME280;45703;50.898;6.054;2023-05-02T08:50:06;101028.47;;;12.15;84.97
59825;BME280;45703;50.898;6.054;2023-05-02T08:52:32;101029.59;;;12.32;84.37
59825;BME280;45703;50.898;6.054;2023-05-02T08:54:59;101031.59;;;12.43;82.99
59825;BME280;45703;50.898;6.054;2023-05-02T08:57:28;101031.19;;;12.46;82.14
59825;BME280;45703;50.898;6.054;2023-05-02T08:59:54;101038.59;;;12.44;79.28
59825;BME280;45703;50.898;6.054;2023-05-02T09:02:42;101035.63;;;12.28;77.46
59825;BME280;45703;50.898;6.054;2023-05-02T09:05:11;101039.53;;;12.25;78.42
59825;BME280;45703;50.898;6.054;2023-05-02T09:07:44;101040.75;;;12.29;80.02
59825;BME280;45703;50.898;6.054;2023-05-02T09:10:11;101056.19;;;12.34;78.69
59825;BME280;45703;50.898;6.054;2023-05-02T09:12:37;101061.72;;;12.32;78.87
59825;BME280;45703;50.898;6.054;2023-05-02T09:15:08;101062.78;;;12.31;78.86
59825;BME280;45703;50.898;6.054;2023-05-02T09:17:41;101062.78;;;12.31;78.51
59825;BME280;45703;50.898;6.054;2023-05-02T09:20:09;101062.41;;;12.21;78.00
59825;BME280;45703;50.898;6.054;2023-05-02T09:22:36;101060.53;;;12.28;79.50
59825;BME280;45703;50.898;6.054;2023-05-02T09:25:01;101066.28;;;12.32;78.57
59825;BME280;45703;50.898;6.054;2023-05-02T09:27:28;101055.53;;;12.38;78.52
59825;BME280;45703;50.898;6.054;2023-05-02T09:30:21;101060.22;;;12.49;79.24
59825;BME280;45703;50.898;6.054;2023-05-02T09:32:48;101062.50;;;12.52;77.95
59825;BME280;45703;50.898;6.054;2023-05-02T09:35:15;101072.34;;;12.58;77.71
59825;BME280;45703;50.898;6.054;2023-05-02T09:37:52;101069.50;;;12.53;75.68
59825;BME280;45703;50.898;6.054;2023-05-02T09:40:18;101075.63;;;12.60;77.05
59825;BME280;45703;50.898;6.054;2023-05-02T09:42:44;101074.00;;;12.59;74.82
59825;BME280;45703;50.898;6.054;2023-05-02T09:45:19;101078.06;;;12.62;76.31
59825;BME280;45703;50.898;6.054;2023-05-02T09:47:44;101086.34;;;12.60;73.73
59825;BME280;45703;50.898;6.054;2023-05-02T09:50:13;101089.63;;;12.62;73.95
59825;BME280;45703;50.898;6.054;2023-05-02T09:53:25;101101.91;;;12.76;76.53
59825;BME280;45703;50.898;6.054;2023-05-02T09:56:03;101096.56;;;12.76;74.94
59825;BME280;45703;50.898;6.054;2023-05-02T09:58:29;101099.03;;;12.78;74.85
59825;BME280;45703;50.898;6.054;2023-05-02T10:00:57;101106.84;;;12.79;76.31
59825;BME280;45703;50.898;6.054;2023-05-02T10:03:24;101105.66;;;12.69;76.68
59825;BME280;45703;50.898;6.054;2023-05-02T10:05:51;101101.63;;;12.53;76.93
59825;BME280;45703;50.898;6.054;2023-05-02T10:08:18;101108.63;;;12.54;76.69
59825;BME280;45703;50.898;6.054;2023-05-02T10:10:55;101118.13;;;12.50;77.08
59825;BME280;45703;50.898;6.054;2023-05-02T10:13:23;101121.63;;;12.44;78.01
59825;BME280;45703;50.898;6.054;2023-05-02T10:15:58;101123.88;;;12.47;78.31
59825;BME280;45703;50.898;6.054;2023-05-02T10:18:27;101129.22;;;12.47;77.53
59825;BME280;45703;50.898;6.054;2023-05-02T10:20:58;101123.44;;;12.57;78.62
59825;BME280;45703;50.898;6.054;2023-05-02T10:23:27;101128.78;;;12.63;77.42
59825;BME280;45703;50.898;6.054;2023-05-02T10:25:53;101123.78;;;12.73;77.65
59825;BME280;45703;50.898;6.054;2023-05-02T10:28:19;101122.94;;;12.79;76.60
59825;BME280;45703;50.898;6.054;2023-05-02T10:30:45;101120.81;;;12.88;75.60
59825;BME280;45703;50.898;6.054;2023-05-02T10:33:15;101123.72;;;12.93;75.09
59825;BME280;45703;50.898;6.054;2023-05-02T10:35:44;101110.50;;;12.98;75.52
59825;BME280;45703;50.898;6.054;2023-05-02T10:38:15;101121.34;;;13.09;75.79
59825;BME280;45703;50.898;6.054;2023-05-02T10:40:47;101104.22;;;13.10;74.92
59825;BME280;45703;50.898;6.054;2023-05-02T10:43:20;101101.66;;;13.21;74.27
59825;BME280;45703;50.898;6.054;2023-05-02T10:45:46;101113.78;;;13.30;73.42
59825;BME280;45703;50.898;6.054;2023-05-02T10:50:54;101113.59;;;13.50;74.85
59825;BME280;45703;50.898;6.054;2023-05-02T10:53:46;101120.59;;;13.51;72.09
59825;BME280;45703;50.898;6.054;2023-05-02T10:56:21;101108.25;;;13.50;71.03
59825;BME280;45703;50.898;6.054;2023-05-02T10:58:51;101094.06;;;13.43;71.64
59825;BME280;45703;50.898;6.054;2023-05-02T11:03:56;101106.78;;;13.54;70.40
59825;BME280;45703;50.898;6.054;2023-05-02T11:06:25;101106.22;;;13.45;69.41
59825;BME280;45703;50.898;6.054;2023-05-02T11:08:52;101106.16;;;13.52;70.33
59825;BME280;45703;50.898;6.054;2023-05-02T11:11:46;101102.19;;;13.61;71.29
59825;BME280;45703;50.898;6.054;2023-05-02T11:24:47;101105.78;;;13.73;71.29
59825;BME280;45703;50.898;6.054;2023-05-02T11:29:58;101111.91;;;13.80;71.62
59825;BME280;45703;50.898;6.054;2023-05-02T11:32:26;101111.47;;;13.83;70.93
59825;BME280;45703;50.898;6.054;2023-05-02T11:35:22;101109.09;;;13.93;72.53
59825;BME280;45703;50.898;6.054;2023-05-02T11:38:02;101107.59;;;13.97;71.63
59825;BME280;45703;50.898;6.054;2023-05-02T11:40:28;101111.13;;;13.97;69.46
59825;BME280;45703;50.898;6.054;2023-05-02T11:42:54;101111.66;;;14.06;70.49
59825;BME280;45703;50.898;6.054;2023-05-02T11:45:20;101126.03;;;14.11;70.64
59825;BME280;45703;50.898;6.054;2023-05-02T11:47:48;101122.75;;;14.16;70.42
59825;BME280;45703;50.898;6.054;2023-05-02T11:50:15;101117.97;;;14.18;68.03
59825;BME280;45703;50.898;6.054;2023-05-02T11:52:42;101112.59;;;14.18;69.79
59825;BME280;45703;50.898;6.054;2023-05-02T11:55:12;101122.59;;;14.29;68.84
59825;BME280;45703;50.898;6.054;2023-05-02T11:57:38;101122.44;;;14.42;71.50
59825;BME280;45703;50.898;6.054;2023-05-02T12:00:06;101124.28;;;14.59;70.83
59825;BME280;45703;50.898;6.054;2023-05-02T12:02:42;101125.84;;;14.66;67.71
59825;BME280;45703;50.898;6.054;2023-05-02T12:05:09;101109.28;;;14.69;67.56
59825;BME280;45703;50.898;6.054;2023-05-02T12:07:39;101133.00;;;14.72;65.88
59825;BME280;45703;50.898;6.054;2023-05-02T12:10:06;101137.59;;;14.54;66.95
59825;BME280;45703;50.898;6.054;2023-05-02T12:12:32;101132.81;;;14.38;67.53
59825;BME280;45703;50.898;6.054;2023-05-02T12:15:02;101141.25;;;14.24;66.49
59825;BME280;45703;50.898;6.054;2023-05-02T12:17:28;101147.50;;;14.18;66.97
59825;BME280;45703;50.898;6.054;2023-05-02T12:19:53;101154.97;;;14.16;68.59
59825;BME280;45703;50.898;6.054;2023-05-02T12:22:19;101153.31;;;14.15;68.26
59825;BME280;45703;50.898;6.054;2023-05-02T12:24:45;101152.03;;;14.17;68.95
59825;BME280;45703;50.898;6.054;2023-05-02T12:27:14;101154.66;;;14.24;68.66
59825;BME280;45703;50.898;6.054;2023-05-02T12:29:41;101157.06;;;14.32;68.34
59825;BME280;45703;50.898;6.054;2023-05-02T12:32:07;101149.75;;;14.39;68.17
59825;BME280;45703;50.898;6.054;2023-05-02T12:34:34;101150.34;;;14.58;66.75
59825;BME280;45703;50.898;6.054;2023-05-02T12:37:01;101150.25;;;14.65;65.96
59825;BME280;45703;50.898;6.054;2023-05-02T12:39:42;101165.47;;;14.71;65.83
59825;BME280;45703;50.898;6.054;2023-05-02T12:42:19;101156.38;;;14.72;65.47
59825;BME280;45703;50.898;6.054;2023-05-02T12:44:46;101155.19;;;14.68;64.94
59825;BME280;45703;50.898;6.054;2023-05-02T12:47:15;101160.09;;;14.71;64.15
59825;BME280;45703;50.898;6.054;2023-05-02T12:49:51;101160.19;;;14.64;59.30
59825;BME280;45703;50.898;6.054;2023-05-02T12:52:21;101146.09;;;14.51;59.76
59825;BME280;45703;50.898;6.054;2023-05-02T12:55:20;101155.25;;;14.43;59.87
59825;BME280;45703;50.898;6.054;2023-05-02T12:57:48;101153.78;;;14.47;63.19
59825;BME280;45703;50.898;6.054;2023-05-02T13:00:17;101169.44;;;14.50;61.52
59825;BME280;45703;50.898;6.054;2023-05-02T13:02:42;101165.50;;;14.53;63.48
59825;BME280;45703;50.898;6.054;2023-05-02T13:05:18;101172.13;;;14.50;59.58
59825;BME280;45703;50.898;6.054;2023-05-02T13:07:44;101174.75;;;14.57;63.59
59825;BME280;45703;50.898;6.054;2023-05-02T13:10:09;101170.22;;;14.57;62.90
59825;BME280;45703;50.898;6.054;2023-05-02T13:12:36;101178.44;;;14.62;62.88
59825;BME280;45703;50.898;6.054;2023-05-02T13:15:07;101181.09;;;14.62;62.05
59825;BME280;45703;50.898;6.054;2023-05-02T13:17:35;101167.97;;;14.54;61.95
59825;BME280;45703;50.898;6.054;2023-05-02T13:20:01;101175.41;;;14.52;61.08
59825;BME280;45703;50.898;6.054;2023-05-02T13:22:27;101180.63;;;14.47;59.50
59825;BME280;45703;50.898;6.054;2023-05-02T13:24:52;101174.25;;;14.66;60.71
59825;BME280;45703;50.898;6.054;2023-05-02T13:27:18;101182.72;;;14.81;59.78
59825;BME280;45703;50.898;6.054;2023-05-02T13:29:44;101180.38;;;15.03;59.94
59825;BME280;45703;50.898;6.054;2023-05-02T13:32:10;101185.13;;;15.19;58.73
59825;BME280;45703;50.898;6.054;2023-05-02T13:34:36;101179.66;;;15.25;59.11
59825;BME280;45703;50.898;6.054;2023-05-02T13:37:02;101189.81;;;15.23;58.49
59825;BME280;45703;50.898;6.054;2023-05-02T13:39:27;101180.13;;;15.22;58.65
59825;BME280;45703;50.898;6.054;2023-05-02T13:41:53;101187.94;;;15.24;59.03
59825;BME280;45703;50.898;6.054;2023-05-02T13:44:18;101184.06;;;15.08;57.80
59825;BME280;45703;50.898;6.054;2023-05-02T13:46:44;101183.47;;;14.88;55.80
59825;BME280;45703;50.898;6.054;2023-05-02T13:49:09;101196.63;;;14.78;53.77
59825;BME280;45703;50.898;6.054;2023-05-02T13:51:34;101190.66;;;14.76;57.09
59825;BME280;45703;50.898;6.054;2023-05-02T13:54:00;101188.88;;;14.70;54.98
59825;BME280;45703;50.898;6.054;2023-05-02T13:56:26;101193.19;;;14.71;58.07
59825;BME280;45703;50.898;6.054;2023-05-02T13:58:52;101184.28;;;14.71;59.45
59825;BME280;45703;50.898;6.054;2023-05-02T14:01:17;101191.16;;;14.67;56.95
59825;BME280;45703;50.898;6.054;2023-05-02T14:03:43;101189.91;;;14.69;59.04
59825;BME280;45703;50.898;6.054;2023-05-02T14:06:08;101189.16;;;14.62;60.02
59825;BME280;45703;50.898;6.054;2023-05-02T14:08:34;101180.50;;;14.60;59.47